Terminal Aerodrome Forecast
Issued by NWS

Home | Current Version | Previous Version | Text Only | Print | Product List | Glossary On
Versions: 1 2 3 4 5 6 7 8 9 10 11 12 13 14 15 16
000
FTAK31 PANC 221747
TAFAIL
TAF
PAIL 221747Z 2218/2318 32007KT P6SM SKC
     FM230300 09012G20KT P6SM -SHSN SCT020 OVC035
     FM230700 09015G25KT 2SM -SN BLSN SCT010 OVC020
     FM231600 05009KT P6SM -SHSN SCT020 BKN035=

USA.gov is the U.S. government's official web portal to all federal, state and local government web resources and services.